Monday, October 16, 2017, 5:57 PM EDT
Back to Local

KCLE, Cleveland-hopkins International

Location: Cleveland, OH, United States Lat: 41.4
Local Time: 5:57 PM EDT (21:57 GMT) Lon: -81.85
Time Zone: US/Eastern Elev: 790 ft

Show me the last for .
Show Decoded

2017-10-16 16:51 METAR KCLE 162051Z 32008KT 10SM FEW045 13/02 A3030 RMK AO2 SLP260 T01280017
                 53001 =
2017-10-16 15:51 METAR KCLE 161951Z 35010KT 10SM FEW043 13/02 A3029 RMK AO2 SLP258 T01330017 =
2017-10-16 14:51 METAR KCLE 161851Z COR 36011KT 10SM FEW043 14/01 A3028 RMK AO2 SLP256 T01390011
                 =
2017-10-16 13:51 METAR KCLE 161751Z 34007KT 10SM SCT043 SCT050 13/02 A3029 RMK AO2 SLP259
                 T01330022 10139 20106 58001 =
2017-10-16 12:51 METAR KCLE 161651Z 30010KT 10SM FEW039 SCT048 14/03 A3030 RMK AO2 SLP262
                 T01390028 =
2017-10-16 11:51 METAR KCLE 161551Z 34010KT 10SM SCT035 13/03 A3030 RMK AO2 SLP260 T01280033 =
2017-10-16 10:51 METAR KCLE 161451Z 30012KT 10SM BKN037 11/03 A3030 RMK AO2 SLP260 T01110028
                 51023 =
2017-10-16 09:51 METAR KCLE 161351Z 32009KT 10SM SCT046 11/04 A3028 RMK AO2 SLP253 T01110039 =
2017-10-16 08:51 METAR KCLE 161251Z 30008KT 10SM FEW035 SCT048 11/05 A3025 RMK AO2 SLP245
                 T01110050 =
2017-10-16 07:51 METAR KCLE 161151Z 32009KT 10SM FEW030 BKN045 11/04 A3023 RMK AO2 SLP236 70006
                 T01060044 10117 20100 51016 $ =
2017-10-16 06:51 METAR KCLE 161051Z 32009KT 10SM FEW027 FEW035 BKN046 11/05 A3021 RMK AO2 SLP230
                 T01060050 $ =
2017-10-16 05:51 METAR KCLE 160951Z 33009KT 10SM FEW035 SCT050 11/04 A3020 RMK AO2 SLP226
                 T01060044 $ =
2017-10-16 04:51 METAR KCLE 160851Z 35013KT 10SM SCT036 SCT047 OVC055 12/04 A3018 RMK AO2 SLP219
                 T01170044 53013 $ =
2017-10-16 03:51 METAR KCLE 160751Z 34010KT 10SM OVC041 12/05 A3016 RMK AO2 SLP212 T01170050 $ =
2017-10-16 02:51 METAR KCLE 160651Z 35010KT 10SM OVC038 12/05 A3015 RMK AO2 SLP208 T01170050 $ =
2017-10-16 01:51 METAR KCLE 160551Z 35012KT 10SM BKN039 OVC047 12/05 A3014 RMK AO2 SLP203
                 T01170050 10156 20117 51015 $ =
2017-10-16 00:51 METAR KCLE 160451Z 35013G20KT 10SM BKN035 OVC043 12/06 A3013 RMK AO2 SLP201
                 T01170056 402610117 $ =
2017-10-15 23:51 METAR KCLE 160351Z 34014G22KT 10SM FEW028 OVC033 12/05 A3011 RMK AO2 SLP195
                 T01170050 $ =
2017-10-15 22:51 METAR KCLE 160251Z 34017G24KT 10SM BKN030 OVC040 13/06 A3009 RMK AO2 PK WND
                 32029/0155 SLP188 T01280061 53039 $ =
2017-10-15 21:51 METAR KCLE 160151Z 34018G26KT 10SM BKN037 OVC045 14/06 A3006 RMK AO2 PK WND
                 33029/0105 SLP175 T01390061 $ =
2017-10-15 20:51 METAR KCLE 160051Z 31019G24KT 10SM SCT029 OVC039 15/08 A3002 RMK AO2 PK WND
                 29028/0005 SLP161 T01500083 $ =
2017-10-15 19:51 METAR KCLE 152351Z 28015G24KT 10SM SCT030 BKN047 OVC060 16/10 A2998 RMK AO2
                 SLP148 60006 T01560100 10256 20156 53031 $ =
2017-10-15 18:51 METAR KCLE 152251Z 27017G24KT 10SM FEW025 BKN046 BKN120 BKN250 16/11 A2994 RMK
                 AO2 PK WND 29034/2221 SLP136 T01560106 $ =
2017-10-15 18:28 METAR KCLE 152228Z 28019G34KT 10SM SCT020 BKN041 BKN047 BKN250 16/11 A2993 RMK
                 AO2 PK WND 29034/2221 T01610111 $ =
2017-10-15 18:11 METAR KCLE 152211Z 28017G30KT 10SM SCT022 BKN028 OVC038 16/12 A2992 RMK AO2 PK
                 WND 28030/2154 T01610117 $ =

Support USWX by starting your Amazon purchase here.